Terminal Aerodrome Forecast
Issued by NWS Wilmington, OH

Current Version | Previous Version | Graphics & Text | Print | Product List | Glossary On
Versions: 1 2 3 4 5 6 7 8 9 10 11 12 13 14 15 16 17 18 19 20 21 22 23 24 25 26 27 28 29
511
FTUS41 KILN 191032 AAB
TAFILN
TAF AMD
KILN 191032Z 1911/2006 15004KT P6SM VCSH BKN008 OVC050
     FM191300 18012KT P6SM VCSH OVC012
     FM191800 21012G20KT P6SM -SHRA VCTS BKN025CB
     FM192200 23010KT P6SM BKN025
     FM200100 24004KT P6SM BKN035=

USA.gov is the U.S. government's official web portal to all federal, state and local government web resources and services.